Time;durP1;ratioP1;P1;durP2;ratioP2;P2;SDS_P1;SDS_P2;PMS_P1;PMS_P2;Temp;Humidity;BMP_temperature;BMP_pressure;BME280_temperature;BME280_humidity;BME280_pressure;Samples;Min_cycle;Max_cycle;Signal;HPM_P1;HPM_P2
2021/08/01 00:00:46;;;;;;;14.43;4.27;;;;;;;15.38;82.36;96029.31;3577510;39;20914;-71
2021/08/01 00:03:14;;;;;;;15.63;4.23;;;;;;;15.48;81.40;96030.06;3568035;40;20478;-72
2021/08/01 00:05:43;;;;;;;6.90;3.30;;;;;;;15.52;81.21;96028.78;3578082;39;20479;-72
2021/08/01 00:08:12;;;;;;;7.20;2.90;;;;;;;15.49;81.57;96029.13;3575671;39;20857;-70
2021/08/01 00:10:40;;;;;;;21.57;3.57;;;;;;;15.14;84.71;96014.88;3563033;40;20491;-73
2021/08/01 00:13:08;;;;;;;8.43;3.20;;;;;;;14.81;83.59;96019.78;3574911;39;20500;-74
2021/08/01 00:15:36;;;;;;;16.10;3.47;;;;;;;14.67;84.94;96016.81;3577268;39;20534;-72
2021/08/01 00:18:04;;;;;;;8.97;3.30;;;;;;;14.57;87.14;96011.56;3578446;39;20546;-73
2021/08/01 00:20:32;;;;;;;60.43;4.40;;;;;;;14.95;84.37;96018.47;3579434;39;20790;-73
2021/08/01 00:23:02;;;;;;;10.53;3.60;;;;;;;14.88;85.54;96019.19;3577508;39;20456;-71
2021/08/01 00:25:31;;;;;;;9.10;3.37;;;;;;;14.43;84.85;96005.75;3579795;39;20441;-71
2021/08/01 00:27:59;;;;;;;10.90;3.30;;;;;;;14.31;85.20;96006.06;3578482;39;20968;-73
2021/08/01 00:30:27;;;;;;;6.50;3.50;;;;;;;14.36;84.53;96007.28;3579498;39;20784;-71
2021/08/01 00:32:55;;;;;;;6.67;3.00;;;;;;;14.28;85.56;95995.81;3569128;40;20461;-71
2021/08/01 00:35:23;;;;;;;8.53;3.37;;;;;;;14.32;88.36;96003.28;3565189;39;20461;-74
2021/08/01 00:40:37;;;;;;;6.17;3.27;;;;;;;14.55;86.13;96000.31;3584654;39;20457;-71
2021/08/01 00:43:06;;;;;;;10.03;2.70;;;;;;;14.54;85.59;95996.00;3587089;39;20456;-72
2021/08/01 00:45:35;;;;;;;14.60;2.90;;;;;;;14.62;84.91;95998.78;3580785;39;20460;-73
2021/08/01 00:48:03;;;;;;;6.70;3.63;;;;;;;14.67;84.77;95991.28;3575430;40;20441;-75
2021/08/01 00:50:34;;;;;;;12.83;3.43;;;;;;;14.52;86.59;95990.06;3578713;39;20449;-72
2021/08/01 00:53:03;;;;;;;14.80;3.30;;;;;;;14.44;86.77;95989.00;3582006;39;20844;-74
2021/08/01 00:55:30;;;;;;;8.80;3.37;;;;;;;14.26;87.34;95990.69;3572263;39;20457;-74
2021/08/01 00:58:00;;;;;;;5.70;2.70;;;;;;;14.02;89.00;95999.06;3576235;39;20950;-72
2021/08/01 01:00:43;;;;;;;12.00;3.87;;;;;;;14.21;88.37;95992.91;3576615;39;20449;-73
2021/08/01 01:03:17;;;;;;;9.90;4.30;;;;;;;14.41;86.64;95991.06;3574851;39;20881;-74
2021/08/01 01:05:51;;;;;;;9.47;3.60;;;;;;;13.96;89.26;95997.81;3580648;39;20448;-70
2021/08/01 01:08:26;;;;;;;8.03;3.53;;;;;;;14.26;87.92;95989.88;3568345;39;20549;-72
2021/08/01 01:10:59;;;;;;;4.80;3.20;;;;;;;14.51;88.12;95998.94;3579308;39;20553;-72
2021/08/01 01:13:32;;;;;;;8.00;3.47;;;;;;;14.52;86.94;95997.94;3576246;39;20488;-71
2021/08/01 01:16:01;;;;;;;9.27;4.10;;;;;;;14.52;86.82;95993.50;3576918;39;20844;-72
2021/08/01 01:18:33;;;;;;;9.73;4.13;;;;;;;14.31;88.60;95993.75;3576446;39;20484;-71
2021/08/01 01:21:26;;;;;;;8.00;3.50;;;;;;;14.50;86.79;95992.81;3578934;39;20700;-71
2021/08/01 01:23:59;;;;;;;20.80;4.37;;;;;;;14.52;87.18;95987.41;3575555;39;20561;-74
2021/08/01 01:26:34;;;;;;;9.67;3.33;;;;;;;14.41;87.42;95994.53;3577105;39;20481;-71
2021/08/01 01:29:15;;;;;;;9.83;3.50;;;;;;;14.53;88.04;95994.34;3579522;39;20856;-73
2021/08/01 01:31:57;;;;;;;13.80;4.17;;;;;;;14.43;86.24;95995.22;3577265;39;20542;-72
2021/08/01 01:34:31;;;;;;;8.57;3.57;;;;;;;14.50;87.56;95994.63;3576065;39;20933;-72
2021/08/01 01:37:03;;;;;;;7.30;4.43;;;;;;;14.52;87.98;95990.88;3576113;39;20808;-74
2021/08/01 01:39:33;;;;;;;10.10;3.50;;;;;;;14.47;87.75;95985.22;3575345;39;20953;-74
2021/08/01 01:42:02;;;;;;;9.30;3.73;;;;;;;14.44;88.52;95993.41;3574743;40;20546;-74
2021/08/01 01:44:31;;;;;;;9.53;5.40;;;;;;;14.35;88.41;95987.22;3574528;39;20476;-72
2021/08/01 01:47:00;;;;;;;7.40;3.67;;;;;;;14.38;89.21;95988.72;3574945;39;20572;-71
2021/08/01 01:49:28;;;;;;;6.50;3.90;;;;;;;14.34;88.11;95985.53;3576113;39;21150;-72
2021/08/01 01:51:57;;;;;;;7.13;3.87;;;;;;;14.31;87.95;95992.88;3578223;39;20432;-72
2021/08/01 01:54:26;;;;;;;11.23;3.93;;;;;;;14.23;88.10;95980.47;3576962;39;20473;-71
2021/08/01 01:56:55;;;;;;;7.13;4.20;;;;;;;14.38;88.08;95991.34;3578934;39;20542;-73
2021/08/01 01:59:24;;;;;;;6.57;3.37;;;;;;;14.49;87.39;95982.44;3576587;39;20893;-74
2021/08/01 02:01:52;;;;;;;8.40;4.17;;;;;;;14.48;88.22;95976.34;3567886;39;20514;-73
2021/08/01 02:04:20;;;;;;;4.20;3.30;;;;;;;14.50;88.03;95978.81;3576611;39;20469;-72
2021/08/01 02:06:48;;;;;;;9.90;4.10;;;;;;;14.18;89.76;95977.41;3577444;39;20438;-71
2021/08/01 02:09:22;;;;;;;15.43;4.33;;;;;;;14.38;87.54;95989.53;3576718;39;20787;-71
2021/08/01 02:12:02;;;;;;;9.97;3.47;;;;;;;14.35;87.70;95987.22;3577822;39;20462;-71
2021/08/01 02:14:38;;;;;;;6.07;4.00;;;;;;;14.41;87.53;95983.19;3574696;39;20464;-72
2021/08/01 02:17:11;;;;;;;7.07;4.23;;;;;;;14.41;87.79;95980.53;3577651;39;20449;-71
2021/08/01 02:19:42;;;;;;;9.90;4.03;;;;;;;14.45;88.60;95979.28;3578479;39;20819;-72
2021/08/01 02:22:12;;;;;;;8.77;3.60;;;;;;;14.54;87.66;95974.94;3574039;39;20545;-71
2021/08/01 02:24:41;;;;;;;4.53;3.60;;;;;;;14.55;87.95;95968.69;3577520;39;20986;-71
2021/08/01 02:27:12;;;;;;;14.83;3.97;;;;;;;14.54;88.06;95970.47;3577557;39;21091;-71
2021/08/01 02:29:40;;;;;;;9.53;4.10;;;;;;;14.56;87.69;95972.97;3578014;39;20480;-73
2021/08/01 02:32:09;;;;;;;8.93;3.77;;;;;;;14.46;87.77;95982.72;3579893;39;20475;-70
2021/08/01 02:34:38;;;;;;;7.23;4.00;;;;;;;14.41;87.72;95986.63;3576596;39;20485;-73
2021/08/01 02:37:08;;;;;;;9.00;4.17;;;;;;;14.34;87.83;95976.81;3578754;39;20946;-73
2021/08/01 02:39:37;;;;;;;10.53;4.70;;;;;;;14.39;87.67;95980.69;3580017;39;20784;-72
2021/08/01 02:42:09;;;;;;;6.13;3.70;;;;;;;14.38;88.04;95975.53;3578603;39;20816;-72
2021/08/01 02:44:39;;;;;;;9.87;4.00;;;;;;;14.23;88.55;95973.38;3579271;39;21082;-71
2021/08/01 02:47:09;;;;;;;11.30;4.13;;;;;;;14.44;88.50;95978.44;3582196;39;20824;-70
2021/08/01 02:49:41;;;;;;;5.87;4.03;;;;;;;14.44;88.63;95974.97;3577566;39;20609;-72
2021/08/01 02:52:12;;;;;;;14.80;5.50;;;;;;;14.06;90.06;95976.75;3571109;39;20566;-71
2021/08/01 02:54:42;;;;;;;16.87;4.37;;;;;;;13.65;91.57;95978.75;3577897;39;20919;-72
2021/08/01 02:57:13;;;;;;;9.80;4.40;;;;;;;13.68;90.77;95967.97;3579386;39;21186;-71
2021/08/01 02:59:43;;;;;;;7.13;3.53;;;;;;;13.58;90.61;95965.34;3578349;39;20981;-72
2021/08/01 03:02:12;;;;;;;14.23;4.77;;;;;;;13.87;89.97;95972.34;3574983;39;20461;-71
2021/08/01 03:04:43;;;;;;;11.97;4.67;;;;;;;14.03;89.41;95972.59;3577510;39;20530;-70
2021/08/01 03:07:12;;;;;;;9.23;4.23;;;;;;;13.96;89.42;95971.50;3576962;39;20770;-72
2021/08/01 03:09:40;;;;;;;7.90;4.10;;;;;;;13.97;89.98;95967.88;3578888;39;20841;-73
2021/08/01 03:12:09;;;;;;;10.20;4.30;;;;;;;13.81;89.73;95976.38;3576890;39;20976;-72
2021/08/01 03:14:37;;;;;;;8.40;3.70;;;;;;;13.84;89.82;95977.91;3567531;39;20487;-71
2021/08/01 03:17:08;;;;;;;11.50;3.63;;;;;;;13.91;89.48;95959.75;3577203;39;20430;-73
2021/08/01 03:19:39;;;;;;;13.70;4.60;;;;;;;13.92;89.56;95970.13;3579322;39;20830;-72
2021/08/01 03:22:08;;;;;;;9.13;4.37;;;;;;;13.85;89.71;95972.47;3570300;39;20897;-71
2021/08/01 03:24:36;;;;;;;10.00;3.53;;;;;;;13.93;91.18;95978.84;3578202;39;21291;-72
2021/08/01 03:27:04;;;;;;;10.93;4.50;;;;;;;14.02;90.89;95975.38;3577643;39;20542;-71
2021/08/01 03:29:32;;;;;;;12.13;5.30;;;;;;;13.92;91.82;95975.41;3578813;39;20493;-73
2021/08/01 03:31:59;;;;;;;9.33;3.73;;;;;;;13.95;90.93;95977.72;3580783;39;20767;-70
2021/08/01 03:34:29;;;;;;;6.60;4.23;;;;;;;14.01;91.28;95977.19;3577631;39;21393;-70
2021/08/01 03:36:57;;;;;;;8.83;3.27;;;;;;;14.15;90.22;95980.31;3582205;39;20794;-70
2021/08/01 03:39:25;;;;;;;8.50;3.70;;;;;;;14.12;89.36;95975.34;3577285;39;20465;-71
2021/08/01 03:41:53;;;;;;;6.37;3.60;;;;;;;14.18;89.02;95977.41;3577311;39;20971;-70
2021/08/01 03:44:21;;;;;;;10.60;4.60;;;;;;;14.29;88.99;95984.31;3580227;39;20800;-70
2021/08/01 03:46:49;;;;;;;8.20;3.70;;;;;;;14.23;88.69;95994.44;3579720;39;20891;-71
2021/08/01 03:49:17;;;;;;;13.60;4.07;;;;;;;14.13;89.74;95987.53;3576221;39;20841;-70
2021/08/01 03:51:46;;;;;;;9.30;4.40;;;;;;;14.18;89.91;95987.94;3578394;39;20476;-71
2021/08/01 03:54:14;;;;;;;6.27;3.40;;;;;;;14.12;88.99;95999.06;3578254;39;20868;-71
2021/08/01 03:56:44;;;;;;;15.33;4.53;;;;;;;14.00;89.88;95996.56;3575856;39;20550;-70
2021/08/01 03:59:12;;;;;;;15.53;4.70;;;;;;;14.03;89.88;95991.03;3579208;39;20605;-71
2021/08/01 04:01:41;;;;;;;6.73;3.83;;;;;;;13.89;90.21;95995.91;3580856;39;20497;-70
2021/08/01 04:04:09;;;;;;;9.57;4.13;;;;;;;13.88;89.43;95989.81;3578437;39;20453;-70
2021/08/01 04:06:37;;;;;;;11.47;4.63;;;;;;;13.90;90.70;95997.53;3577374;39;20816;-75
2021/08/01 04:09:06;;;;;;;6.13;3.83;;;;;;;13.85;90.23;95996.16;3576972;39;20727;-71
2021/08/01 04:11:37;;;;;;;10.50;3.63;;;;;;;13.85;90.25;95998.78;3580555;39;20651;-70
2021/08/01 04:14:05;;;;;;;10.30;4.10;;;;;;;13.93;90.78;96002.53;3577648;39;20701;-73
2021/08/01 04:16:33;;;;;;;31.10;5.87;;;;;;;13.84;90.64;96004.22;3577435;39;20732;-73
2021/08/01 04:19:01;;;;;;;16.73;3.97;;;;;;;13.83;91.02;95998.09;3576780;39;21102;-73
2021/08/01 04:21:29;;;;;;;5.37;3.60;;;;;;;13.81;91.97;96007.13;3576966;39;20761;-73
2021/08/01 04:23:57;;;;;;;6.07;4.70;;;;;;;13.84;91.69;96012.13;3568094;40;20549;-72
2021/08/01 04:26:31;;;;;;;9.67;4.27;;;;;;;13.80;91.25;96010.75;3578747;39;20553;-71
2021/08/01 04:28:59;;;;;;;9.90;4.27;;;;;;;13.75;91.46;96012.94;3580314;39;20872;-70
2021/08/01 04:31:27;;;;;;;8.30;4.50;;;;;;;13.88;91.38;96010.88;3568501;39;20487;-72
2021/08/01 04:33:55;;;;;;;7.53;3.50;;;;;;;13.88;90.18;96013.50;3576599;39;21013;-72
2021/08/01 04:36:23;;;;;;;12.37;4.20;;;;;;;13.77;90.53;96011.00;3581118;39;20832;-71
2021/08/01 04:38:51;;;;;;;12.70;4.70;;;;;;;13.89;90.41;96015.16;3576733;39;20464;-71
2021/08/01 04:41:19;;;;;;;7.83;4.30;;;;;;;13.88;89.97;96012.66;3578664;39;20834;-72
2021/08/01 04:43:48;;;;;;;11.40;4.20;;;;;;;13.90;90.65;96008.94;3577204;39;20553;-72
2021/08/01 04:46:16;;;;;;;9.00;4.23;;;;;;;13.83;90.55;96013.06;3580649;39;20447;-72
2021/08/01 04:48:44;;;;;;;6.83;4.20;;;;;;;13.84;90.40;96006.84;3578004;39;20877;-72
2021/08/01 04:51:12;;;;;;;7.93;4.50;;;;;;;13.55;92.13;96009.50;3580298;39;20588;-70
2021/08/01 04:53:40;;;;;;;11.27;5.00;;;;;;;13.40;93.61;96006.44;3576337;39;20817;-70
2021/08/01 04:56:11;;;;;;;9.90;4.40;;;;;;;13.66;91.26;96004.06;3577480;39;20526;-71
2021/08/01 04:58:39;;;;;;;7.00;4.20;;;;;;;13.62;91.45;96006.19;3575886;40;20605;-71
2021/08/01 05:01:12;;;;;;;14.10;4.90;;;;;;;13.45;91.60;95999.78;3578085;39;20825;-71
2021/08/01 05:03:40;;;;;;;10.43;3.90;;;;;;;13.68;90.97;95996.91;3575191;39;20869;-71
2021/08/01 05:06:08;;;;;;;5.00;4.03;;;;;;;13.89;89.69;95993.25;3579727;39;20467;-73
2021/08/01 05:08:36;;;;;;;11.10;4.13;;;;;;;14.02;89.32;95997.25;3567143;40;20714;-72
2021/08/01 05:11:04;;;;;;;12.43;4.80;;;;;;;14.01;89.64;96003.50;3578174;39;20451;-76
2021/08/01 05:13:32;;;;;;;12.77;4.30;;;;;;;14.07;89.30;96003.91;3580957;39;20474;-73
2021/08/01 05:16:00;;;;;;;8.60;4.50;;;;;;;14.11;89.97;95995.56;3576201;39;20577;-71
2021/08/01 05:18:30;;;;;;;8.50;4.40;;;;;;;14.20;90.31;95999.16;3580958;39;20471;-71
2021/08/01 05:20:58;;;;;;;7.20;4.50;;;;;;;14.25;89.04;95999.59;3561503;40;20857;-71
2021/08/01 05:23:26;;;;;;;6.97;4.53;;;;;;;14.24;89.22;96000.53;3579631;39;20486;-72
2021/08/01 05:25:54;;;;;;;5.57;4.50;;;;;;;14.28;89.46;95996.66;3580099;39;20934;-70
2021/08/01 05:28:22;;;;;;;13.87;4.10;;;;;;;14.33;89.60;95997.06;3577205;39;20784;-72
2021/08/01 05:30:50;;;;;;;10.27;4.47;;;;;;;14.38;88.90;95997.44;3566453;40;20478;-71
2021/08/01 05:33:24;;;;;;;9.23;3.80;;;;;;;14.34;87.57;95990.81;3577813;39;20555;-74
2021/08/01 05:35:53;;;;;;;8.10;3.83;;;;;;;14.24;88.52;95997.91;3576304;39;20908;-72
2021/08/01 05:38:21;;;;;;;9.03;5.03;;;;;;;14.24;90.06;95995.28;3574060;39;20439;-73
2021/08/01 05:40:51;;;;;;;5.43;3.53;;;;;;;14.40;88.19;96007.84;3578517;39;20764;-72
2021/08/01 05:43:19;;;;;;;8.50;4.23;;;;;;;14.44;88.42;96007.44;3577957;39;20896;-72
2021/08/01 05:45:47;;;;;;;14.67;4.50;;;;;;;14.39;88.19;96004.38;3568421;40;20768;-73
2021/08/01 05:48:15;;;;;;;6.23;4.00;;;;;;;14.45;87.60;96002.97;3579887;39;20775;-72
2021/08/01 05:50:43;;;;;;;7.33;4.33;;;;;;;14.49;89.62;96003.53;3578587;39;20721;-71
2021/08/01 05:53:21;;;;;;;12.83;4.93;;;;;;;14.67;88.74;95999.19;3582263;39;20480;-71
2021/08/01 05:55:52;;;;;;;8.03;4.40;;;;;;;14.65;89.19;96001.13;3576189;39;20925;-71
2021/08/01 05:58:20;;;;;;;11.50;3.80;;;;;;;14.63;88.04;96005.72;3577781;39;20512;-72
2021/08/01 06:00:48;;;;;;;8.17;4.30;;;;;;;14.61;86.77;96002.41;3576930;39;20914;-71
2021/08/01 06:03:16;;;;;;;10.87;4.00;;;;;;;14.57;87.90;95995.75;3581318;39;20696;-72
2021/08/01 06:05:44;;;;;;;6.27;3.93;;;;;;;14.40;87.83;95992.84;3577905;39;20854;-72
2021/08/01 06:08:14;;;;;;;18.23;3.90;;;;;;;14.38;87.67;95991.34;3579973;39;20546;-72
2021/08/01 06:10:41;;;;;;;6.00;3.60;;;;;;;14.25;88.33;95991.69;3583799;39;20517;-71
2021/08/01 06:13:09;;;;;;;5.53;3.90;;;;;;;14.35;88.17;96002.19;3579836;39;20480;-71
2021/08/01 06:15:37;;;;;;;5.73;5.03;;;;;;;14.49;87.97;96003.53;3579585;39;20453;-72
2021/08/01 06:18:05;;;;;;;6.77;3.87;;;;;;;14.63;87.62;96013.63;3567332;40;20464;-71
2021/08/01 06:20:33;;;;;;;9.43;4.20;;;;;;;14.70;87.39;96008.59;3581143;39;20911;-73
2021/08/01 06:23:01;;;;;;;9.23;4.17;;;;;;;14.87;88.05;96015.72;3563019;40;20449;-72
2021/08/01 06:25:31;;;;;;;8.30;5.20;;;;;;;14.88;87.34;96019.19;3579926;39;20962;-71
2021/08/01 06:27:59;;;;;;;11.10;4.37;;;;;;;14.78;87.65;96024.53;3580095;39;20577;-71
2021/08/01 06:30:27;;;;;;;7.07;4.00;;;;;;;14.81;86.86;96029.50;3580091;39;21019;-69
2021/08/01 06:32:55;;;;;;;9.40;3.70;;;;;;;14.78;86.62;96030.63;3580160;39;20671;-70
2021/08/01 06:35:23;;;;;;;9.50;4.57;;;;;;;14.67;87.23;96028.16;3580214;39;20441;-71
2021/08/01 06:37:51;;;;;;;5.90;4.00;;;;;;;14.73;88.18;96030.22;3581446;39;20847;-70
2021/08/01 06:40:19;;;;;;;13.23;5.13;;;;;;;14.61;87.82;96029.56;3581804;39;20836;-71
2021/08/01 06:42:48;;;;;;;7.17;4.00;;;;;;;14.76;88.21;96022.03;3569357;39;20672;-71
2021/08/01 06:45:16;;;;;;;9.17;3.60;;;;;;;14.99;87.13;96026.91;3580246;39;20480;-73
2021/08/01 06:47:44;;;;;;;11.50;3.97;;;;;;;15.24;86.64;96030.66;3576106;39;20470;-70
2021/08/01 06:50:12;;;;;;;8.40;3.87;;;;;;;15.21;86.71;96031.78;3569686;40;21205;-70
2021/08/01 06:52:40;;;;;;;9.97;4.40;;;;;;;15.25;86.40;96028.84;3580705;39;20462;-71
2021/08/01 06:55:08;;;;;;;7.07;3.33;;;;;;;15.12;86.14;96031.84;3568219;40;20760;-71
2021/08/01 06:57:36;;;;;;;7.37;4.37;;;;;;;15.36;85.99;96033.91;3569611;40;20473;-71
2021/08/01 07:00:07;;;;;;;8.63;3.57;;;;;;;15.17;85.20;96033.06;3579707;39;20479;-71
2021/08/01 07:02:36;;;;;;;8.40;3.37;;;;;;;15.32;84.21;96048.38;3579315;39;20546;-70
2021/08/01 07:05:05;;;;;;;5.33;3.20;;;;;;;15.04;85.17;96045.75;3559828;40;20774;-73
2021/08/01 07:07:33;;;;;;;8.23;4.03;;;;;;;15.06;85.19;96043.81;3577701;39;20460;-72
2021/08/01 07:10:02;;;;;;;6.17;3.63;;;;;;;15.26;84.25;96041.88;3578546;39;20951;-71
2021/08/01 07:12:30;;;;;;;6.80;3.73;;;;;;;15.29;84.14;96046.03;3578655;39;21208;-72
2021/08/01 07:14:58;;;;;;;9.60;4.13;;;;;;;15.10;85.22;96055.72;3575605;39;20558;-70
2021/08/01 07:17:28;;;;;;;9.93;3.73;;;;;;;15.20;85.95;96042.47;3579846;39;20924;-75
2021/08/01 07:19:56;;;;;;;5.97;3.43;;;;;;;15.37;85.80;96048.78;3579838;39;20500;-71
2021/08/01 07:22:24;;;;;;;5.70;3.80;;;;;;;15.47;85.13;96036.34;3580529;39;20818;-71
2021/08/01 07:24:52;;;;;;;7.67;3.90;;;;;;;15.65;84.59;96046.09;3568856;39;20776;-70
2021/08/01 07:27:20;;;;;;;7.13;3.47;;;;;;;15.54;84.75;96040.06;3579877;39;20456;-72
2021/08/01 07:29:48;;;;;;;16.30;6.87;;;;;;;15.54;84.13;96055.03;3579782;39;20572;-70
2021/08/01 07:32:16;;;;;;;10.50;6.93;;;;;;;15.34;84.90;96057.81;3577957;39;20786;-69
2021/08/01 07:34:47;;;;;;;5.70;3.37;;;;;;;15.20;84.96;96059.13;3579416;39;20784;-70
2021/08/01 07:37:15;;;;;;;4.10;3.20;;;;;;;15.26;85.41;96057.72;3578876;39;20877;-71
2021/08/01 07:39:44;;;;;;;7.60;3.90;;;;;;;15.16;84.80;96057.78;3576804;39;20878;-71
2021/08/01 07:42:12;;;;;;;4.60;2.97;;;;;;;14.99;85.64;96063.81;3571780;40;20810;-71
2021/08/01 07:44:48;;;;;;;4.73;3.13;;;;;;;14.95;86.31;96065.09;3581288;39;20571;-72
2021/08/01 07:47:18;;;;;;;8.43;3.10;;;;;;;15.06;87.26;96064.91;3576741;40;20448;-72
2021/08/01 07:49:48;;;;;;;7.50;3.90;;;;;;;15.11;86.73;96067.94;3579765;39;20906;-74
2021/08/01 07:52:16;;;;;;;8.77;4.30;;;;;;;14.96;88.17;96070.22;3579149;40;20437;-70
2021/08/01 07:54:44;;;;;;;12.43;3.00;;;;;;;14.88;86.59;96072.75;3580378;39;21073;-69
2021/08/01 07:57:22;;;;;;;8.77;3.97;;;;;;;14.75;86.41;96067.78;3583390;39;20447;-70
2021/08/01 07:59:50;;;;;;;7.87;3.40;;;;;;;14.78;86.06;96070.16;3579101;39;20457;-71
2021/08/01 08:02:18;;;;;;;6.63;3.50;;;;;;;14.71;86.79;96079.59;3579537;39;20476;-71
2021/08/01 08:04:48;;;;;;;5.23;3.57;;;;;;;14.91;86.92;96067.19;3579745;39;20933;-71
2021/08/01 08:07:16;;;;;;;9.70;4.03;;;;;;;15.02;86.57;96079.34;3578247;39;20889;-72
2021/08/01 08:09:44;;;;;;;5.90;3.00;;;;;;;14.93;85.85;96078.41;3576705;39;21209;-71
2021/08/01 08:12:12;;;;;;;6.20;4.00;;;;;;;14.95;85.79;96073.00;3578669;39;20829;-70
2021/08/01 08:14:40;;;;;;;6.83;3.70;;;;;;;15.05;86.48;96068.50;3569285;39;20486;-72
2021/08/01 08:17:09;;;;;;;7.80;3.73;;;;;;;15.10;85.62;96068.09;3579607;39;20814;-71
2021/08/01 08:19:38;;;;;;;9.30;4.70;;;;;;;15.10;86.04;96076.81;3580810;39;20858;-70
2021/08/01 08:22:09;;;;;;;7.43;3.20;;;;;;;15.13;85.88;96071.25;3576650;39;21002;-74
2021/08/01 08:24:37;;;;;;;4.73;3.13;;;;;;;15.08;84.93;96076.13;3577844;39;20881;-72
2021/08/01 08:27:06;;;;;;;4.93;3.20;;;;;;;14.89;83.75;96076.22;3581455;39;20437;-70
2021/08/01 08:29:34;;;;;;;6.40;3.20;;;;;;;14.94;83.86;96071.34;3580099;39;20787;-72
2021/08/01 08:32:02;;;;;;;5.60;2.83;;;;;;;15.02;83.47;96074.09;3577306;39;20472;-70
2021/08/01 08:34:30;;;;;;;13.63;7.87;;;;;;;15.16;83.26;96073.59;3576508;39;20491;-69
2021/08/01 08:37:00;;;;;;;7.20;4.63;;;;;;;15.20;84.02;96077.59;3576827;39;20834;-70
2021/08/01 08:39:30;;;;;;;5.90;3.90;;;;;;;15.34;83.76;96075.44;3577318;39;20492;-70
2021/08/01 08:41:59;;;;;;;5.27;3.70;;;;;;;15.24;83.00;96080.78;3578637;39;20921;-70
2021/08/01 08:44:29;;;;;;;6.83;3.13;;;;;;;15.33;82.55;96081.72;3575577;40;20570;-71
2021/08/01 08:46:57;;;;;;;9.13;3.97;;;;;;;15.50;82.21;96086.16;3577781;40;20441;-73
2021/08/01 08:49:27;;;;;;;7.60;3.40;;;;;;;15.49;81.07;96086.34;3579880;39;20546;-72
2021/08/01 08:51:57;;;;;;;5.53;3.63;;;;;;;15.84;80.45;96084.72;3577301;40;20518;-71
2021/08/01 08:54:39;;;;;;;4.77;2.93;;;;;;;16.05;80.63;96087.06;3578022;39;20903;-71
2021/08/01 08:57:20;;;;;;;5.90;3.00;;;;;;;16.25;79.98;96093.84;3578556;39;20879;-69
2021/08/01 08:59:51;;;;;;;7.53;3.47;;;;;;;16.08;78.48;96092.88;3582040;39;20564;-70
2021/08/01 09:02:19;;;;;;;15.90;3.50;;;;;;;16.15;80.31;96099.22;3578492;39;20813;-70
2021/08/01 09:04:50;;;;;;;9.40;3.90;;;;;;;16.15;78.12;96093.09;3574891;39;20516;-70
2021/08/01 09:07:17;;;;;;;7.23;3.50;;;;;;;16.02;79.74;96096.94;3577943;39;20449;-70
2021/08/01 09:09:47;;;;;;;8.80;3.63;;;;;;;16.07;79.25;96095.66;3579709;39;20829;-70
2021/08/01 09:12:15;;;;;;;5.43;2.97;;;;;;;15.82;81.58;96098.09;3576929;39;20443;-71
2021/08/01 09:14:43;;;;;;;23.40;3.83;;;;;;;16.52;78.17;96098.16;3576520;39;20488;-70
2021/08/01 09:17:11;;;;;;;8.50;3.63;;;;;;;16.79;76.27;96110.41;3578019;39;20518;-74
2021/08/01 09:19:43;;;;;;;8.70;4.27;;;;;;;16.54;78.31;96104.16;3566291;40;20814;-71
2021/08/01 09:22:16;;;;;;;8.83;3.57;;;;;;;16.27;78.08;96106.88;3559958;40;20510;-71
2021/08/01 09:24:48;;;;;;;8.10;3.63;;;;;;;16.37;79.43;96105.84;3575764;39;20466;-71
2021/08/01 09:27:29;;;;;;;10.23;5.40;;;;;;;16.80;77.94;96113.91;3579412;39;20475;-72
2021/08/01 09:30:01;;;;;;;7.37;4.90;;;;;;;16.60;78.50;96110.59;3579144;39;21092;-70
2021/08/01 09:32:32;;;;;;;9.40;3.77;;;;;;;16.31;79.03;96119.66;3578978;39;20565;-71
2021/08/01 09:35:01;;;;;;;8.40;4.13;;;;;;;16.39;80.15;96110.97;3578761;39;20983;-71
2021/08/01 09:37:31;;;;;;;6.90;4.67;;;;;;;16.61;78.38;96118.38;3579084;39;20814;-72
2021/08/01 09:40:08;;;;;;;5.60;4.03;;;;;;;16.64;78.70;96116.41;3579705;39;20896;-71
2021/08/01 09:42:42;;;;;;;6.40;4.07;;;;;;;16.68;78.43;96115.97;3580062;39;20922;-69
2021/08/01 09:45:16;;;;;;;8.10;4.20;;;;;;;17.01;77.77;96121.47;3580250;39;21219;-73
2021/08/01 09:47:45;;;;;;;6.13;3.87;;;;;;;17.24;75.92;96115.66;3577707;39;20445;-72
2021/08/01 09:50:14;;;;;;;5.60;4.00;;;;;;;17.03;76.19;96113.38;3578929;39;20894;-73
2021/08/01 09:52:43;;;;;;;4.77;3.23;;;;;;;16.86;76.35;96112.47;3579984;39;20433;-71
2021/08/01 09:55:20;;;;;;;6.47;4.30;;;;;;;16.82;77.92;96108.47;3579110;39;20465;-74
2021/08/01 09:57:53;;;;;;;13.33;4.30;;;;;;;17.05;76.88;96099.00;3572712;39;20796;-71
2021/08/01 10:00:23;;;;;;;10.37;4.03;;;;;;;17.07;76.38;96110.28;3558187;39;20818;-73
2021/08/01 10:02:51;;;;;;;7.43;3.73;;;;;;;16.51;80.17;96106.28;3576180;40;20452;-71
2021/08/01 10:05:21;;;;;;;12.20;3.80;;;;;;;16.69;79.39;96104.41;3579991;39;20734;-73
2021/08/01 10:07:50;;;;;;;8.27;4.47;;;;;;;16.78;78.41;96102.66;3577584;39;20836;-71
2021/08/01 10:10:21;;;;;;;5.97;3.40;;;;;;;17.14;76.95;96097.25;3579975;39;20490;-73
2021/08/01 10:12:52;;;;;;;14.10;4.60;;;;;;;16.82;78.51;96095.25;3578467;39;20918;-72
2021/08/01 10:15:21;;;;;;;5.10;4.10;;;;;;;16.95;79.61;96099.13;3576757;40;20805;-72
2021/08/01 10:17:49;;;;;;;9.67;4.40;;;;;;;17.47;75.78;96103.50;3571827;40;20818;-73
2021/08/01 10:20:17;;;;;;;10.40;3.97;;;;;;;17.64;77.42;96101.75;3579854;39;20537;-72
2021/08/01 10:22:46;;;;;;;10.43;4.00;;;;;;;17.95;77.13;96102.00;3578848;39;20449;-74
2021/08/01 10:25:22;;;;;;;5.77;3.80;;;;;;;17.84;73.70;96098.81;3578659;39;20468;-74
2021/08/01 10:27:53;;;;;;;7.60;4.13;;;;;;;18.00;72.92;96100.69;3577310;39;20919;-72
2021/08/01 10:30:27;;;;;;;11.20;4.03;;;;;;;18.12;72.48;96102.00;3579449;39;21120;-70
2021/08/01 10:33:00;;;;;;;8.27;3.60;;;;;;;17.57;76.70;96092.78;3564029;39;20546;-71
2021/08/01 10:35:30;;;;;;;6.33;3.87;;;;;;;18.46;74.26;96101.00;3578727;39;20791;-72
2021/08/01 10:38:02;;;;;;;8.80;3.43;;;;;;;18.79;71.43;96091.19;3578530;39;20426;-70
2021/08/01 10:40:34;;;;;;;8.90;3.83;;;;;;;19.13;68.94;96090.97;3578621;39;20760;-73
2021/08/01 10:43:07;;;;;;;12.60;3.10;;;;;;;18.96;65.87;96084.88;3579529;39;20478;-70
2021/08/01 10:45:36;;;;;;;7.10;3.40;;;;;;;18.96;68.28;96081.41;3581873;39;20525;-74
2021/08/01 10:48:07;;;;;;;58.70;34.77;;;;;;;19.15;66.86;96080.16;3580842;39;20571;-75
2021/08/01 10:50:36;;;;;;;8.47;5.20;;;;;;;19.51;64.76;96077.88;3569867;39;20818;-72
2021/08/01 10:53:23;;;;;;;10.63;2.97;;;;;;;18.98;66.15;96079.41;3577787;39;20452;-73
2021/08/01 10:55:54;;;;;;;7.60;3.57;;;;;;;19.50;64.35;96089.50;3578211;39;20553;-71
2021/08/01 10:58:22;;;;;;;5.03;2.83;;;;;;;19.58;61.82;96075.34;3576437;39;20836;-70
2021/08/01 11:01:01;;;;;;;5.07;3.13;;;;;;;19.19;62.84;96081.50;3580166;39;21186;-72
2021/08/01 11:03:29;;;;;;;5.73;2.90;;;;;;;19.03;63.24;96076.25;3577078;39;20464;-72
2021/08/01 11:05:58;;;;;;;6.37;3.10;;;;;;;19.00;67.21;96072.09;3578765;39;20457;-72
2021/08/01 11:08:26;;;;;;;7.00;3.33;;;;;;;19.19;66.61;96076.19;3580796;39;20565;-72
2021/08/01 11:11:14;;;;;;;6.00;3.00;;;;;;;19.60;67.32;96072.50;3580951;39;20945;-72
2021/08/01 11:13:44;;;;;;;8.33;3.63;;;;;;;19.85;64.39;96076.69;3579852;39;20771;-74
2021/08/01 11:16:14;;;;;;;5.03;2.80;;;;;;;20.05;63.68;96071.78;3576425;39;20835;-71
2021/08/01 11:18:44;;;;;;;6.97;2.80;;;;;;;20.07;59.73;96069.75;3577182;39;20449;-72
2021/08/01 11:21:14;;;;;;;6.70;2.57;;;;;;;19.48;60.54;96074.72;3576840;39;20439;-69
2021/08/01 11:24:18;;;;;;;3.97;2.30;;;;;;;19.53;64.46;96069.72;3578849;39;20449;-70
2021/08/01 11:27:11;;;;;;;3.97;2.70;;;;;;;20.21;63.44;96068.16;3577971;39;21042;-71
2021/08/01 11:30:02;;;;;;;5.40;3.03;;;;;;;20.98;63.14;96063.63;3580149;39;20487;-72
2021/08/01 11:32:49;;;;;;;6.20;2.67;;;;;;;20.44;61.93;96062.78;3577311;39;20978;-73
2021/08/01 11:35:18;;;;;;;5.00;2.77;;;;;;;20.59;61.96;96068.19;3562116;40;20827;-69
2021/08/01 11:37:46;;;;;;;6.27;2.70;;;;;;;20.42;62.01;96056.81;3550248;40;20505;-73
2021/08/01 11:40:14;;;;;;;2.80;2.60;;;;;;;20.29;61.31;96064.59;3567555;40;20820;-71
2021/08/01 11:42:44;;;;;;;4.33;2.73;;;;;;;20.41;61.04;96068.47;3561409;40;20462;-73
2021/08/01 11:45:14;;;;;;;7.17;2.63;;;;;;;20.72;58.55;96068.38;3566336;39;20935;-70
2021/08/01 11:47:44;;;;;;;9.83;2.70;;;;;;;20.64;59.86;96068.47;3567783;39;20473;-70